Time;durP1;ratioP1;P1;durP2;ratioP2;P2;SDS_P1;SDS_P2;PMS_P1;PMS_P2;Temp;Humidity;BMP_temperature;BMP_pressure;BME280_temperature;BME280_humidity;BME280_pressure;Samples;Min_cycle;Max_cycle;Signal;HPM_P1;HPM_P2
2022/09/03 00:01:26;;;;;;;2.20;0.63;;;;;;;;;;5019357;28;20041;-58
2022/09/03 00:04:18;;;;;;;1.30;0.60;;;;;;;;;;5047357;28;20041;-58
2022/09/03 00:07:07;;;;;;;1.20;0.90;;;;;;;;;;5041007;28;20065;-58
2022/09/03 00:10:01;;;;;;;1.65;0.70;;;;;;;;;;5046702;28;20059;-61
2022/09/03 00:12:46;;;;;;;3.17;0.95;;;;;;;;;;5024291;28;20460;-59
2022/09/03 00:15:32;;;;;;;2.78;0.70;;;;;;;;;;5046747;28;20064;-59
2022/09/03 00:18:19;;;;;;;1.92;0.93;;;;;;;;;;5041549;28;20044;-59
2022/09/03 00:21:07;;;;;;;2.08;1.00;;;;;;;;;;5025897;28;20075;-58
2022/09/03 00:23:53;;;;;;;1.80;0.50;;;;;;;;;;5042230;28;20147;-58
2022/09/03 00:26:39;;;;;;;6.95;1.40;;;;;;;;;;5040705;28;20112;-59
2022/09/03 00:29:26;;;;;;;1.48;0.77;;;;;;;;;;5048602;28;20076;-58
2022/09/03 00:32:17;;;;;;;1.35;0.88;;;;;;;;;;5039886;28;20044;-58
2022/09/03 00:35:04;;;;;;;2.10;1.20;;;;;;;;;;5042595;28;20393;-58
2022/09/03 00:37:50;;;;;;;4.25;1.10;;;;;;;;;;5034015;28;20497;-59
2022/09/03 00:40:46;;;;;;;2.28;0.82;;;;;;;;;;5046288;28;20368;-59
2022/09/03 00:43:48;;;;;;;1.80;0.88;;;;;;;;;;5050592;28;20044;-58
2022/09/03 00:46:40;;;;;;;2.38;1.17;;;;;;;;;;5034274;28;20050;-59
2022/09/03 00:49:24;;;;;;;2.03;0.90;;;;;;;;;;5048584;28;20037;-60
2022/09/03 00:52:29;;;;;;;2.28;1.13;;;;;;;;;;5041538;28;20033;-57
2022/09/03 00:55:19;;;;;;;2.92;1.10;;;;;;;;;;5042152;28;20037;-58
2022/09/03 00:58:23;;;;;;;2.47;0.73;;;;;;;;;;5041038;28;20472;-58
2022/09/03 01:01:12;;;;;;;3.83;1.20;;;;;;;;;;5052456;28;20036;-58
2022/09/03 01:04:11;;;;;;;2.50;1.50;;;;;;;;;;5052242;28;20116;-59
2022/09/03 01:07:04;;;;;;;3.35;1.55;;;;;;;;;;5048512;28;20032;-58
2022/09/03 01:09:58;;;;;;;1.50;0.90;;;;;;;;;;5052476;28;20112;-58
2022/09/03 01:12:53;;;;;;;1.75;1.00;;;;;;;;;;5054521;28;20040;-59
2022/09/03 01:15:55;;;;;;;2.42;1.20;;;;;;;;;;5039112;28;20049;-58
2022/09/03 01:18:47;;;;;;;5.85;1.08;;;;;;;;;;5036153;28;20065;-58
2022/09/03 01:21:35;;;;;;;1.60;1.00;;;;;;;;;;5044016;28;20069;-58
2022/09/03 01:24:20;;;;;;;2.15;1.15;;;;;;;;;;5041979;28;20053;-59
2022/09/03 01:27:04;;;;;;;2.28;1.10;;;;;;;;;;5045080;28;20154;-59
2022/09/03 01:29:52;;;;;;;2.83;1.00;;;;;;;;;;5049992;28;20048;-57
2022/09/03 01:32:55;;;;;;;3.05;1.00;;;;;;;;;;5051860;28;20432;-58
2022/09/03 01:35:45;;;;;;;2.45;0.95;;;;;;;;;;5047161;28;20037;-58
2022/09/03 01:38:36;;;;;;;3.00;1.30;;;;;;;;;;5049252;28;20033;-58
2022/09/03 01:44:52;;;;;;;2.80;1.40;;;;;;;;;;5051589;28;20699;-57
2022/09/03 01:47:36;;;;;;;2.90;1.40;;;;;;;;;;5050377;28;20049;-57
2022/09/03 01:50:21;;;;;;;2.20;1.02;;;;;;;;;;5049320;28;20173;-58
2022/09/03 01:53:27;;;;;;;1.65;1.10;;;;;;;;;;5047118;28;20045;-57
2022/09/03 01:56:33;;;;;;;5.10;1.05;;;;;;;;;;5050513;28;20123;-57
2022/09/03 01:59:23;;;;;;;3.13;1.17;;;;;;;;;;5048046;28;20048;-58
2022/09/03 02:02:28;;;;;;;2.75;1.40;;;;;;;;;;5057099;28;20037;-57
2022/09/03 02:05:18;;;;;;;1.92;0.98;;;;;;;;;;5051764;28;20045;-57
2022/09/03 02:08:04;;;;;;;4.00;1.40;;;;;;;;;;5044081;28;20037;-58
2022/09/03 02:10:50;;;;;;;3.40;1.02;;;;;;;;;;5046601;28;20116;-58
2022/09/03 02:13:37;;;;;;;2.28;1.20;;;;;;;;;;5049896;28;20072;-57
2022/09/03 02:16:24;;;;;;;2.95;1.20;;;;;;;;;;5045739;28;20460;-57
2022/09/03 02:19:11;;;;;;;2.60;1.30;;;;;;;;;;5037547;28;20072;-57
2022/09/03 02:21:56;;;;;;;2.67;1.13;;;;;;;;;;5051603;28;20048;-57
2022/09/03 02:24:40;;;;;;;3.33;1.17;;;;;;;;;;5046710;28;20050;-58
2022/09/03 02:27:25;;;;;;;3.75;1.23;;;;;;;;;;5044253;28;20476;-59
2022/09/03 02:30:10;;;;;;;2.42;1.35;;;;;;;;;;5050037;28;20036;-58
2022/09/03 02:32:55;;;;;;;2.83;1.15;;;;;;;;;;5047234;28;20366;-58
2022/09/03 02:35:40;;;;;;;4.28;1.17;;;;;;;;;;5037037;28;20440;-59
2022/09/03 02:38:25;;;;;;;5.88;1.10;;;;;;;;;;5036203;28;20142;-57
2022/09/03 02:41:12;;;;;;;3.65;1.10;;;;;;;;;;5033279;28;20118;-58
2022/09/03 02:43:59;;;;;;;2.22;1.20;;;;;;;;;;5041918;28;20438;-58
2022/09/03 02:46:45;;;;;;;2.63;1.00;;;;;;;;;;5040945;28;20130;-58
2022/09/03 02:49:30;;;;;;;2.63;1.50;;;;;;;;;;5036950;28;20040;-58
2022/09/03 02:52:15;;;;;;;2.97;1.20;;;;;;;;;;5044506;28;20072;-59
2022/09/03 02:55:00;;;;;;;2.38;1.30;;;;;;;;;;5043839;28;20148;-58
2022/09/03 02:57:45;;;;;;;2.33;1.20;;;;;;;;;;5051442;28;20041;-58
2022/09/03 03:00:30;;;;;;;5.63;1.30;;;;;;;;;;5047094;28;20081;-58
2022/09/03 03:03:14;;;;;;;6.30;1.65;;;;;;;;;;5039597;28;20073;-57
2022/09/03 03:06:01;;;;;;;3.03;1.02;;;;;;;;;;5042072;28;20477;-59
2022/09/03 03:08:46;;;;;;;2.08;1.02;;;;;;;;;;5047539;28;20049;-59
2022/09/03 03:11:30;;;;;;;2.08;1.10;;;;;;;;;;5046719;28;20064;-59
2022/09/03 03:14:16;;;;;;;1.77;1.00;;;;;;;;;;5045162;28;20052;-59
2022/09/03 03:17:00;;;;;;;3.05;1.13;;;;;;;;;;5044653;28;20056;-59
2022/09/03 03:19:44;;;;;;;3.45;1.20;;;;;;;;;;5039612;28;20128;-58
2022/09/03 03:22:29;;;;;;;4.40;1.40;;;;;;;;;;5042507;28;20038;-58
2022/09/03 03:25:13;;;;;;;2.25;1.25;;;;;;;;;;5047020;28;20559;-58
2022/09/03 03:27:57;;;;;;;2.65;1.38;;;;;;;;;;5050083;28;20806;-58
2022/09/03 03:30:42;;;;;;;1.88;1.00;;;;;;;;;;5043196;28;20254;-58
2022/09/03 03:33:26;;;;;;;2.45;0.95;;;;;;;;;;5045343;28;20037;-58
2022/09/03 03:36:12;;;;;;;3.58;1.20;;;;;;;;;;5039158;28;20388;-58
2022/09/03 03:38:58;;;;;;;2.70;1.40;;;;;;;;;;5037587;28;20046;-58
2022/09/03 03:41:43;;;;;;;2.33;1.33;;;;;;;;;;5045614;28;20052;-58
2022/09/03 03:44:28;;;;;;;2.65;1.23;;;;;;;;;;5058070;28;20037;-60
2022/09/03 03:47:15;;;;;;;3.38;1.55;;;;;;;;;;5039891;28;20491;-59
2022/09/03 03:49:59;;;;;;;2.15;1.23;;;;;;;;;;5052414;28;20395;-58
2022/09/03 03:52:45;;;;;;;4.25;1.20;;;;;;;;;;5042147;28;20037;-58
2022/09/03 03:55:29;;;;;;;1.42;0.98;;;;;;;;;;5041436;28;20063;-58
2022/09/03 03:58:13;;;;;;;2.53;1.40;;;;;;;;;;5050395;28;20117;-58
2022/09/03 04:01:06;;;;;;;4.38;1.77;;;;;;;;;;5043269;28;20084;-57
2022/09/03 04:03:51;;;;;;;4.75;1.73;;;;;;;;;;5074376;28;20044;-58
2022/09/03 04:06:35;;;;;;;2.05;1.10;;;;;;;;;;5019835;28;20076;-58
2022/09/03 04:09:19;;;;;;;4.15;1.52;;;;;;;;;;5047081;28;21148;-58
2022/09/03 04:12:07;;;;;;;8.15;1.52;;;;;;;;;;5048040;28;20033;-58
2022/09/03 04:14:51;;;;;;;2.40;1.17;;;;;;;;;;5044662;28;20427;-59
2022/09/03 04:17:36;;;;;;;5.53;1.58;;;;;;;;;;5046701;28;20498;-58
2022/09/03 04:20:21;;;;;;;2.58;1.50;;;;;;;;;;5043635;28;20056;-58
2022/09/03 04:23:05;;;;;;;2.42;1.42;;;;;;;;;;5044861;28;20041;-59
2022/09/03 04:25:52;;;;;;;2.92;1.63;;;;;;;;;;5047529;28;20083;-58
2022/09/03 04:28:37;;;;;;;2.33;1.70;;;;;;;;;;5023595;28;20495;-58
2022/09/03 04:31:22;;;;;;;3.92;1.33;;;;;;;;;;5045113;28;20034;-59
2022/09/03 04:34:07;;;;;;;2.28;1.38;;;;;;;;;;5046847;28;20066;-59
2022/09/03 04:36:51;;;;;;;2.03;1.50;;;;;;;;;;5049025;28;20047;-58
2022/09/03 04:39:36;;;;;;;2.78;1.55;;;;;;;;;;5044237;28;20037;-59
2022/09/03 04:42:20;;;;;;;3.67;1.30;;;;;;;;;;5044746;28;20102;-58
2022/09/03 04:45:05;;;;;;;2.95;1.50;;;;;;;;;;5041913;28;20064;-58
2022/09/03 04:48:00;;;;;;;3.50;1.42;;;;;;;;;;5044384;28;20053;-58
2022/09/03 04:50:44;;;;;;;3.55;1.52;;;;;;;;;;5044004;28;20068;-58
2022/09/03 04:53:28;;;;;;;2.40;1.40;;;;;;;;;;5046076;28;20067;-58
2022/09/03 04:56:17;;;;;;;3.83;1.55;;;;;;;;;;5045073;28;20107;-58
2022/09/03 04:59:03;;;;;;;6.10;1.58;;;;;;;;;;5041650;28;20683;-58
2022/09/03 05:01:48;;;;;;;3.90;1.40;;;;;;;;;;5045924;28;20496;-58
2022/09/03 05:04:32;;;;;;;3.03;1.17;;;;;;;;;;5031740;28;20052;-58
2022/09/03 05:07:18;;;;;;;3.13;1.70;;;;;;;;;;5042381;28;20046;-58
2022/09/03 05:10:07;;;;;;;4.43;1.77;;;;;;;;;;5048255;28;20040;-58
2022/09/03 05:12:58;;;;;;;3.25;1.52;;;;;;;;;;5044778;28;20403;-59
2022/09/03 05:15:44;;;;;;;;;;;;;;;;;;5033005;28;20123;-59
2022/09/03 05:18:28;;;;;;;5.13;1.83;;;;;;;;;;5030670;28;19936;-60
2022/09/03 05:21:15;;;;;;;2.38;1.38;;;;;;;;;;5047386;28;20136;-59
2022/09/03 05:24:00;;;;;;;6.93;1.70;;;;;;;;;;5046620;28;20044;-58
2022/09/03 05:26:45;;;;;;;2.33;1.58;;;;;;;;;;5045026;28;20049;-58
2022/09/03 05:29:29;;;;;;;4.20;1.80;;;;;;;;;;5048823;28;20494;-58
2022/09/03 05:32:16;;;;;;;2.47;1.40;;;;;;;;;;5040028;28;20045;-58
2022/09/03 05:35:00;;;;;;;3.40;1.58;;;;;;;;;;5044317;28;20037;-59
2022/09/03 05:37:45;;;;;;;2.33;1.48;;;;;;;;;;5030661;28;20073;-58
2022/09/03 05:40:30;;;;;;;2.67;1.40;;;;;;;;;;5050891;28;20083;-59
2022/09/03 05:43:16;;;;;;;5.72;2.50;;;;;;;;;;5049706;28;20120;-60
2022/09/03 05:46:01;;;;;;;2.40;1.65;;;;;;;;;;5049130;28;20049;-58
2022/09/03 05:48:46;;;;;;;2.55;1.60;;;;;;;;;;5032758;28;20041;-54
2022/09/03 05:51:31;;;;;;;5.88;2.17;;;;;;;;;;5050656;28;20053;-59
2022/09/03 05:54:15;;;;;;;5.40;2.03;;;;;;;;;;5052369;28;20089;-59
2022/09/03 05:57:00;;;;;;;3.38;1.80;;;;;;;;;;5068544;28;20192;-61
2022/09/03 05:59:45;;;;;;;3.88;1.83;;;;;;;;;;5037637;28;20075;-57
2022/09/03 06:02:31;;;;;;;5.85;2.65;;;;;;;;;;5047324;28;20055;-62
2022/09/03 06:05:17;;;;;;;4.70;2.30;;;;;;;;;;5048935;28;20041;-56
2022/09/03 06:08:02;;;;;;;4.07;1.88;;;;;;;;;;5048872;28;20429;-60
2022/09/03 06:10:47;;;;;;;6.63;2.97;;;;;;;;;;5051238;28;20033;-56
2022/09/03 06:13:32;;;;;;;5.90;2.47;;;;;;;;;;5049119;28;20044;-61
2022/09/03 06:16:16;;;;;;;5.45;3.03;;;;;;;;;;5042734;28;20631;-56
2022/09/03 06:19:01;;;;;;;5.88;2.92;;;;;;;;;;5030636;28;20111;-59
2022/09/03 06:21:46;;;;;;;5.50;2.42;;;;;;;;;;5050023;28;20446;-58
2022/09/03 06:24:30;;;;;;;9.68;4.13;;;;;;;;;;5048550;28;20063;-58
2022/09/03 06:27:15;;;;;;;12.88;5.78;;;;;;;;;;5050564;28;20083;-61
2022/09/03 06:30:00;;;;;;;18.55;6.03;;;;;;;;;;5035600;28;20100;-59
2022/09/03 06:32:45;;;;;;;5.28;2.92;;;;;;;;;;5042756;28;20044;-52
2022/09/03 06:35:29;;;;;;;5.00;2.40;;;;;;;;;;5056449;28;20037;-56
2022/09/03 06:38:14;;;;;;;7.97;3.45;;;;;;;;;;5047101;28;20140;-60
2022/09/03 06:41:02;;;;;;;6.10;2.90;;;;;;;;;;5030271;28;20032;-56
2022/09/03 06:43:48;;;;;;;5.32;2.55;;;;;;;;;;5049782;28;20059;-57
2022/09/03 06:46:33;;;;;;;7.70;3.75;;;;;;;;;;5050154;28;20041;-58
2022/09/03 06:49:19;;;;;;;4.30;2.30;;;;;;;;;;5044129;28;20136;-58
2022/09/03 06:52:03;;;;;;;6.43;2.50;;;;;;;;;;5047899;28;20038;-59
2022/09/03 06:54:48;;;;;;;3.50;2.40;;;;;;;;;;5033944;28;20050;-60
2022/09/03 06:57:32;;;;;;;3.90;2.13;;;;;;;;;;5039121;28;20033;-56
2022/09/03 07:00:18;;;;;;;3.65;2.28;;;;;;;;;;5036491;28;20116;-51
2022/09/03 07:03:02;;;;;;;6.65;2.50;;;;;;;;;;5048636;28;20045;-57
2022/09/03 07:05:47;;;;;;;4.38;2.38;;;;;;;;;;5037690;28;20034;-57
2022/09/03 07:08:32;;;;;;;5.38;2.25;;;;;;;;;;5046848;28;20037;-53
2022/09/03 07:11:18;;;;;;;5.63;2.47;;;;;;;;;;5046167;28;20536;-58
2022/09/03 07:14:03;;;;;;;4.35;2.33;;;;;;;;;;5040556;28;20140;-60
2022/09/03 07:16:49;;;;;;;3.45;2.35;;;;;;;;;;5037357;28;20083;-56
2022/09/03 07:19:34;;;;;;;4.32;2.25;;;;;;;;;;5062029;28;20033;-57
2022/09/03 07:22:19;;;;;;;5.07;2.55;;;;;;;;;;5046885;28;20037;-57
2022/09/03 07:25:03;;;;;;;4.88;2.50;;;;;;;;;;5048333;28;20060;-61
2022/09/03 07:27:50;;;;;;;3.03;2.13;;;;;;;;;;5042279;28;20083;-55
2022/09/03 07:30:34;;;;;;;5.50;2.50;;;;;;;;;;5044698;28;20037;-62
2022/09/03 07:33:19;;;;;;;3.63;2.40;;;;;;;;;;5040677;28;20147;-55
2022/09/03 07:36:06;;;;;;;4.50;2.00;;;;;;;;;;5043547;28;20135;-59
2022/09/03 07:38:54;;;;;;;5.57;2.70;;;;;;;;;;5041745;28;20074;-60
2022/09/03 07:41:44;;;;;;;5.32;2.45;;;;;;;;;;5046555;28;20170;-62
2022/09/03 07:44:29;;;;;;;4.53;2.03;;;;;;;;;;5040632;28;20037;-57
2022/09/03 07:47:17;;;;;;;4.95;2.55;;;;;;;;;;5042562;28;20134;-58
2022/09/03 07:50:02;;;;;;;4.88;2.30;;;;;;;;;;5040160;28;20480;-48
2022/09/03 07:52:48;;;;;;;5.13;2.35;;;;;;;;;;5034574;28;20040;-52
2022/09/03 07:55:33;;;;;;;3.92;2.65;;;;;;;;;;5043529;28;20203;-49
2022/09/03 07:58:17;;;;;;;3.05;2.10;;;;;;;;;;5046887;28;20036;-49
2022/09/03 08:01:12;;;;;;;4.45;2.42;;;;;;;;;;5032836;28;20045;-52
2022/09/03 08:03:56;;;;;;;7.18;2.70;;;;;;;;;;5039115;28;20067;-53
2022/09/03 08:06:41;;;;;;;4.65;2.30;;;;;;;;;;5040316;28;20041;-55
2022/09/03 08:09:25;;;;;;;5.55;2.80;;;;;;;;;;5046153;28;20102;-51
2022/09/03 08:12:10;;;;;;;5.07;2.42;;;;;;;;;;5045608;28;20041;-47
2022/09/03 08:14:56;;;;;;;4.20;2.00;;;;;;;;;;5069039;28;20445;-55
2022/09/03 08:17:42;;;;;;;4.93;1.90;;;;;;;;;;5047686;28;20111;-50
2022/09/03 08:20:27;;;;;;;2.63;1.80;;;;;;;;;;5042791;28;20115;-53
2022/09/03 08:23:12;;;;;;;2.42;1.60;;;;;;;;;;5040597;28;20072;-50
2022/09/03 08:26:00;;;;;;;5.78;1.85;;;;;;;;;;5039313;28;20040;-48
2022/09/03 08:28:45;;;;;;;3.78;1.70;;;;;;;;;;5039892;28;20064;-55
2022/09/03 08:31:31;;;;;;;4.50;2.17;;;;;;;;;;5041913;28;20049;-58
2022/09/03 08:34:18;;;;;;;3.85;1.90;;;;;;;;;;5039769;28;20037;-56
2022/09/03 08:37:04;;;;;;;4.85;2.00;;;;;;;;;;5033180;28;20597;-58
2022/09/03 08:39:49;;;;;;;4.72;2.42;;;;;;;;;;5041950;28;20508;-57
2022/09/03 08:42:45;;;;;;;3.00;1.73;;;;;;;;;;5039868;28;20041;-58
2022/09/03 08:45:32;;;;;;;4.10;1.83;;;;;;;;;;5041942;28;20411;-54
2022/09/03 08:48:20;;;;;;;3.95;1.75;;;;;;;;;;5044027;28;20075;-53
2022/09/03 08:51:06;;;;;;;3.08;1.75;;;;;;;;;;5071696;28;20370;-58
2022/09/03 08:53:54;;;;;;;3.78;1.35;;;;;;;;;;5040897;28;20044;-59
2022/09/03 08:56:40;;;;;;;3.22;1.80;;;;;;;;;;5059084;28;20060;-59
2022/09/03 08:59:25;;;;;;;3.38;1.80;;;;;;;;;;5043181;28;20065;-57
2022/09/03 09:02:09;;;;;;;4.45;1.90;;;;;;;;;;5043036;28;20136;-59
2022/09/03 09:04:56;;;;;;;7.78;3.70;;;;;;;;;;5047061;28;20068;-56
2022/09/03 09:07:52;;;;;;;7.18;3.05;;;;;;;;;;5048287;28;20102;-57
2022/09/03 09:10:44;;;;;;;5.07;2.28;;;;;;;;;;5071916;28;21400;-54
2022/09/03 09:13:42;;;;;;;3.13;1.77;;;;;;;;;;5045847;28;20033;-57
2022/09/03 09:16:46;;;;;;;4.22;1.65;;;;;;;;;;5043735;28;20063;-55
2022/09/03 09:19:50;;;;;;;1.65;1.35;;;;;;;;;;5058700;28;20040;-54
2022/09/03 09:22:37;;;;;;;2.90;1.40;;;;;;;;;;5042671;28;20056;-62
2022/09/03 09:25:23;;;;;;;3.50;2.00;;;;;;;;;;5041502;28;20045;-64
2022/09/03 09:28:15;;;;;;;2.47;1.50;;;;;;;;;;5048599;28;20064;-45
2022/09/03 09:31:01;;;;;;;2.85;1.33;;;;;;;;;;5048713;28;20045;-55
2022/09/03 09:33:46;;;;;;;2.70;1.30;;;;;;;;;;5046381;28;20073;-51
2022/09/03 09:36:30;;;;;;;2.17;1.35;;;;;;;;;;5051132;28;20037;-52
2022/09/03 09:39:14;;;;;;;3.65;1.63;;;;;;;;;;5047701;28;20091;-49
2022/09/03 09:42:07;;;;;;;4.00;1.35;;;;;;;;;;5043833;28;20064;-53
2022/09/03 09:44:52;;;;;;;3.65;1.73;;;;;;;;;;5044547;28;20036;-51
2022/09/03 09:47:38;;;;;;;5.03;1.27;;;;;;;;;;5053596;28;20056;-52
2022/09/03 09:50:22;;;;;;;2.47;1.48;;;;;;;;;;5048106;28;20040;-54
2022/09/03 09:53:13;;;;;;;6.82;1.13;;;;;;;;;;5050304;28;20106;-54
2022/09/03 09:55:57;;;;;;;2.03;1.05;;;;;;;;;;5052723;28;20057;-55
2022/09/03 09:58:42;;;;;;;2.90;1.10;;;;;;;;;;5048596;28;20060;-56
2022/09/03 10:01:29;;;;;;;5.70;1.00;;;;;;;;;;5050804;28;20410;-57
2022/09/03 10:04:21;;;;;;;1.38;0.80;;;;;;;;;;5047353;28;20045;-56
2022/09/03 10:07:26;;;;;;;2.95;1.40;;;;;;;;;;5042929;28;20405;-60
2022/09/03 10:10:13;;;;;;;3.03;1.20;;;;;;;;;;5059369;28;20112;-50
2022/09/03 10:13:08;;;;;;;1.65;0.90;;;;;;;;;;5045965;28;20142;-54
2022/09/03 10:15:58;;;;;;;4.95;1.20;;;;;;;;;;5046574;28;20122;-55
2022/09/03 10:18:46;;;;;;;2.05;1.30;;;;;;;;;;5052236;28;20369;-55
2022/09/03 10:21:38;;;;;;;2.72;1.15;;;;;;;;;;5044851;28;20087;-56
2022/09/03 10:24:41;;;;;;;2.35;1.20;;;;;;;;;;5043930;28;20496;-54
2022/09/03 10:27:25;;;;;;;2.22;1.05;;;;;;;;;;5043415;28;20065;-54
2022/09/03 10:30:13;;;;;;;4.78;1.30;;;;;;;;;;5037156;28;20040;-52
2022/09/03 10:33:29;;;;;;;4.40;1.17;;;;;;;;;;5047789;28;20116;-55
2022/09/03 10:36:20;;;;;;;2.80;1.17;;;;;;;;;;5039925;28;20061;-54
2022/09/03 10:39:18;;;;;;;3.33;1.27;;;;;;;;;;4998153;28;20050;-57
2022/09/03 10:42:02;;;;;;;4.53;1.05;;;;;;;;;;5026617;28;20053;-56
2022/09/03 10:44:47;;;;;;;4.65;0.85;;;;;;;;;;5015280;28;20046;-51
2022/09/03 10:47:32;;;;;;;2.38;0.88;;;;;;;;;;5020300;28;20054;-50
2022/09/03 10:50:25;;;;;;;2.53;1.00;;;;;;;;;;5022558;28;20096;-54
2022/09/03 10:53:25;;;;;;;3.15;1.30;;;;;;;;;;5028004;28;20123;-57
2022/09/03 10:56:16;;;;;;;5.57;1.20;;;;;;;;;;5024220;28;20040;-53
2022/09/03 10:59:00;;;;;;;1.27;1.00;;;;;;;;;;5011134;28;20045;-55
2022/09/03 11:01:48;;;;;;;3.25;0.77;;;;;;;;;;5014568;28;20492;-55
2022/09/03 11:04:37;;;;;;;2.83;1.20;;;;;;;;;;5015631;28;20075;-54
2022/09/03 11:07:34;;;;;;;2.17;1.17;;;;;;;;;;5027659;28;20033;-56
2022/09/03 11:10:23;;;;;;;4.85;1.90;;;;;;;;;;5029002;28;20551;-56
2022/09/03 11:13:08;;;;;;;3.33;1.10;;;;;;;;;;5043502;28;20055;-53
2022/09/03 11:15:58;;;;;;;1.85;0.95;;;;;;;;;;5035357;28;20041;-53
2022/09/03 11:18:45;;;;;;;1.35;0.70;;;;;;;;;;5038857;28;20171;-53
2022/09/03 11:21:30;;;;;;;2.53;1.00;;;;;;;;;;5041268;28;20155;-54
2022/09/03 11:24:22;;;;;;;2.72;0.90;;;;;;;;;;5039356;28;20123;-50
2022/09/03 11:27:16;;;;;;;1.75;0.73;;;;;;;;;;5073746;28;20033;-51
2022/09/03 11:30:05;;;;;;;2.95;1.00;;;;;;;;;;5032712;28;20071;-52
2022/09/03 11:32:53;;;;;;;1.85;0.60;;;;;;;;;;5047921;28;20385;-53
2022/09/03 11:35:40;;;;;;;2.67;0.75;;;;;;;;;;5042325;28;20423;-46
2022/09/03 11:38:27;;;;;;;1.70;0.90;;;;;;;;;;5047080;28;20094;-56
2022/09/03 11:41:14;;;;;;;1.98;0.73;;;;;;;;;;5041336;28;20049;-52
2022/09/03 11:43:58;;;;;;;1.77;0.95;;;;;;;;;;5043926;28;20045;-51
2022/09/03 11:46:53;;;;;;;3.17;0.65;;;;;;;;;;5047370;28;20044;-51
2022/09/03 11:49:42;;;;;;;3.13;1.02;;;;;;;;;;5050135;28;20102;-54
2022/09/03 11:52:28;;;;;;;1.13;0.70;;;;;;;;;;5048442;28;20099;-50
2022/09/03 11:55:23;;;;;;;2.58;0.82;;;;;;;;;;5042892;28;20045;-54
2022/09/03 11:58:37;;;;;;;1.52;0.90;;;;;;;;;;5032899;28;20045;-53
2022/09/03 12:01:23;;;;;;;2.63;0.90;;;;;;;;;;4951981;29;20055;-50
2022/09/03 12:04:13;;;;;;;1.85;0.60;;;;;;;;;;4951519;29;20039;-57
2022/09/03 12:07:09;;;;;;;3.05;0.75;;;;;;;;;;4938254;29;20039;-43
2022/09/03 12:10:03;;;;;;;3.45;0.82;;;;;;;;;;4965312;28;20078;-49
2022/09/03 12:12:54;;;;;;;1.50;0.80;;;;;;;;;;4951564;29;20403;-50
2022/09/03 12:15:53;;;;;;;1.27;0.80;;;;;;;;;;4968955;28;20055;-52
2022/09/03 12:18:40;;;;;;;1.75;0.70;;;;;;;;;;4967806;28;20056;-48
2022/09/03 12:21:25;;;;;;;1.08;0.73;;;;;;;;;;4950433;29;20126;-56
2022/09/03 12:24:11;;;;;;;1.50;0.90;;;;;;;;;;4966194;28;20045;-52
2022/09/03 12:26:57;;;;;;;2.03;0.93;;;;;;;;;;4974532;28;20447;-52
2022/09/03 12:29:49;;;;;;;1.05;0.52;;;;;;;;;;4983737;28;20070;-53
2022/09/03 12:32:39;;;;;;;1.52;0.70;;;;;;;;;;4970450;28;20530;-54
2022/09/03 12:35:23;;;;;;;1.55;0.70;;;;;;;;;;4964428;28;20055;-55
2022/09/03 12:38:11;;;;;;;2.53;0.80;;;;;;;;;;5028562;28;20041;-54
2022/09/03 12:40:57;;;;;;;1.10;0.68;;;;;;;;;;5044558;28;20037;-51
2022/09/03 12:43:50;;;;;;;1.88;0.70;;;;;;;;;;5039161;28;20053;-55
2022/09/03 12:46:34;;;;;;;2.40;0.60;;;;;;;;;;5045795;28;20053;-53
2022/09/03 12:49:19;;;;;;;1.10;0.70;;;;;;;;;;5044439;28;20033;-54
2022/09/03 12:52:14;;;;;;;1.63;0.50;;;;;;;;;;5042146;28;20045;-52
2022/09/03 12:55:12;;;;;;;2.33;0.85;;;;;;;;;;5073573;28;20029;-52
2022/09/03 12:58:03;;;;;;;1.63;0.60;;;;;;;;;;5048204;28;20083;-51
2022/09/03 13:00:53;;;;;;;0.60;0.40;;;;;;;;;;5042482;28;20087;-53
2022/09/03 13:03:40;;;;;;;2.88;0.80;;;;;;;;;;5037257;28;20067;-52
2022/09/03 13:06:31;;;;;;;1.00;0.60;;;;;;;;;;5050206;28;20045;-51
2022/09/03 13:09:19;;;;;;;2.50;0.80;;;;;;;;;;5049794;28;20033;-53
2022/09/03 13:12:04;;;;;;;2.60;1.00;;;;;;;;;;5036474;28;20056;-54
2022/09/03 13:14:49;;;;;;;1.98;0.77;;;;;;;;;;5038270;28;20087;-55
2022/09/03 13:17:36;;;;;;;3.42;0.82;;;;;;;;;;5035845;28;20148;-50
2022/09/03 13:20:33;;;;;;;3.67;1.13;;;;;;;;;;5032729;28;20053;-53
2022/09/03 13:23:18;;;;;;;2.03;0.60;;;;;;;;;;5043584;28;20118;-53
2022/09/03 13:26:02;;;;;;;1.33;0.65;;;;;;;;;;5043749;28;20473;-52
2022/09/03 13:28:57;;;;;;;0.98;0.63;;;;;;;;;;5045637;28;20495;-53
2022/09/03 13:31:45;;;;;;;2.83;0.60;;;;;;;;;;5056584;28;20051;-48
2022/09/03 13:34:30;;;;;;;5.55;0.85;;;;;;;;;;5035158;28;20108;-54
2022/09/03 13:37:16;;;;;;;1.73;0.80;;;;;;;;;;5042278;28;20041;-52
2022/09/03 13:40:19;;;;;;;1.92;0.77;;;;;;;;;;5034749;28;20051;-53
2022/09/03 13:43:13;;;;;;;0.85;0.60;;;;;;;;;;5044114;28;20057;-53
2022/09/03 13:46:05;;;;;;;1.00;0.65;;;;;;;;;;5055671;28;20389;-51
2022/09/03 13:52:02;;;;;;;1.40;0.80;;;;;;;;;;4991998;28;20038;-52
2022/09/03 13:54:51;;;;;;;1.80;0.80;;;;;;;;;;4981292;28;20041;-52
2022/09/03 13:57:45;;;;;;;2.67;0.65;;;;;;;;;;4998117;28;20118;-53
2022/09/03 14:00:48;;;;;;;2.25;1.20;;;;;;;;;;4992541;28;20221;-52
2022/09/03 14:03:41;;;;;;;1.30;0.90;;;;;;;;;;4992598;28;20428;-50
2022/09/03 14:06:38;;;;;;;1.73;0.80;;;;;;;;;;4992283;28;20034;-53
2022/09/03 14:09:26;;;;;;;5.60;1.25;;;;;;;;;;4970804;28;20070;-55
2022/09/03 14:12:17;;;;;;;1.88;0.77;;;;;;;;;;4991679;28;20505;-52
2022/09/03 14:15:07;;;;;;;1.65;0.85;;;;;;;;;;4992063;28;20062;-55
2022/09/03 14:18:12;;;;;;;3.23;1.07;;;;;;;;;;4990362;28;20124;-53
2022/09/03 14:21:00;;;;;;;1.30;0.80;;;;;;;;;;4979860;28;20038;-52
2022/09/03 14:23:47;;;;;;;3.58;0.90;;;;;;;;;;4997902;28;20482;-51
2022/09/03 14:26:33;;;;;;;1.17;0.68;;;;;;;;;;5006453;28;20065;-54
2022/09/03 14:29:19;;;;;;;1.25;0.60;;;;;;;;;;5029752;28;20086;-54
2022/09/03 14:32:23;;;;;;;1.85;0.85;;;;;;;;;;5042453;28;20396;-56
2022/09/03 14:35:22;;;;;;;2.95;1.02;;;;;;;;;;5049217;28;20091;-56
2022/09/03 14:38:13;;;;;;;1.30;0.90;;;;;;;;;;5033567;28;20046;-53
2022/09/03 14:41:14;;;;;;;1.15;0.80;;;;;;;;;;5041745;28;20087;-52
2022/09/03 14:44:15;;;;;;;1.55;0.88;;;;;;;;;;5038627;28;20446;-52
2022/09/03 14:47:00;;;;;;;;;;;;;;;;;;5026937;28;20059;-55
2022/09/03 14:50:04;;;;;;;1.70;0.80;;;;;;;;;;5045465;28;20031;-54
2022/09/03 14:52:58;;;;;;;1.50;0.90;;;;;;;;;;5022591;28;20072;-52
2022/09/03 14:55:58;;;;;;;1.23;0.85;;;;;;;;;;5029906;28;20050;-51
2022/09/03 14:58:49;;;;;;;2.47;0.90;;;;;;;;;;5029059;28;20499;-61
2022/09/03 15:01:34;;;;;;;1.50;0.80;;;;;;;;;;5025418;28;20500;-52
2022/09/03 15:04:24;;;;;;;2.60;0.88;;;;;;;;;;5012767;28;20056;-53
2022/09/03 15:07:22;;;;;;;2.28;0.70;;;;;;;;;;4998784;28;20095;-54
2022/09/03 15:10:09;;;;;;;3.75;0.82;;;;;;;;;;5025215;28;20440;-52
2022/09/03 15:12:56;;;;;;;3.03;1.00;;;;;;;;;;5030731;28;20053;-52
2022/09/03 15:15:40;;;;;;;1.95;1.00;;;;;;;;;;5011071;28;20041;-51
2022/09/03 15:18:25;;;;;;;3.42;0.82;;;;;;;;;;5029869;28;20074;-52
2022/09/03 15:21:15;;;;;;;3.05;0.90;;;;;;;;;;5028985;28;20037;-49
2022/09/03 15:24:22;;;;;;;1.20;0.80;;;;;;;;;;5025953;28;20050;-55
2022/09/03 15:27:14;;;;;;;1.52;0.90;;;;;;;;;;5020500;28;20037;-52
2022/09/03 15:30:11;;;;;;;2.37;0.80;;;;;;;;;;5037086;28;20136;-51
2022/09/03 15:32:56;;;;;;;1.15;0.70;;;;;;;;;;5047364;28;20038;-53
2022/09/03 15:35:51;;;;;;;2.25;1.05;;;;;;;;;;5041620;28;20036;-51
2022/09/03 15:38:35;;;;;;;2.42;1.10;;;;;;;;;;5048777;28;20112;-53
2022/09/03 15:41:48;;;;;;;1.67;0.82;;;;;;;;;;5048571;28;20033;-54
2022/09/03 15:44:36;;;;;;;1.73;0.93;;;;;;;;;;5048108;28;20087;-54
2022/09/03 15:47:48;;;;;;;1.92;0.93;;;;;;;;;;5048376;28;20110;-55
2022/09/03 15:50:34;;;;;;;1.73;0.82;;;;;;;;;;5047687;28;20097;-52
2022/09/03 15:53:54;;;;;;;3.22;0.95;;;;;;;;;;5045685;28;20457;-53
2022/09/03 15:56:44;;;;;;;1.13;0.82;;;;;;;;;;4971506;28;20129;-52
2022/09/03 15:59:28;;;;;;;2.92;1.00;;;;;;;;;;4971101;28;20130;-52
2022/09/03 16:02:13;;;;;;;3.40;1.02;;;;;;;;;;4969589;28;20472;-51
2022/09/03 16:05:04;;;;;;;2.00;0.93;;;;;;;;;;4970448;28;20513;-54
2022/09/03 16:07:55;;;;;;;3.00;1.08;;;;;;;;;;4970505;28;20101;-53
2022/09/03 16:10:39;;;;;;;1.83;0.90;;;;;;;;;;4970892;28;20056;-49
2022/09/03 16:13:30;;;;;;;3.55;1.10;;;;;;;;;;4970829;28;20316;-49
2022/09/03 16:16:14;;;;;;;1.95;0.88;;;;;;;;;;4961732;28;20083;-50
2022/09/03 16:19:03;;;;;;;2.72;1.00;;;;;;;;;;4970857;28;20050;-52
2022/09/03 16:21:54;;;;;;;1.60;0.90;;;;;;;;;;4974455;28;20390;-48
2022/09/03 16:25:04;;;;;;;1.85;1.00;;;;;;;;;;4975868;28;20070;-49
2022/09/03 16:28:17;;;;;;;4.33;1.17;;;;;;;;;;4990039;28;20165;-49
2022/09/03 16:31:08;;;;;;;3.63;1.00;;;;;;;;;;4998204;28;20050;-54
2022/09/03 16:34:12;;;;;;;1.77;1.02;;;;;;;;;;5010748;28;20033;-53
2022/09/03 16:37:15;;;;;;;2.40;1.10;;;;;;;;;;4995664;28;20121;-53
2022/09/03 16:40:00;;;;;;;1.95;0.70;;;;;;;;;;4991624;28;20065;-51
2022/09/03 16:42:56;;;;;;;1.85;0.90;;;;;;;;;;4993110;28;20085;-52
2022/09/03 16:45:47;;;;;;;3.38;1.05;;;;;;;;;;5003278;28;20126;-49
2022/09/03 16:48:34;;;;;;;1.65;0.80;;;;;;;;;;5009881;28;20058;-55
2022/09/03 16:51:27;;;;;;;2.58;1.38;;;;;;;;;;4988680;28;20084;-55
2022/09/03 16:54:18;;;;;;;1.25;0.90;;;;;;;;;;5016033;28;20049;-54
2022/09/03 16:57:03;;;;;;;;;;;;;;;;;;5003781;28;20046;-51
2022/09/03 16:59:48;;;;;;;1.30;0.80;;;;;;;;;;4995557;28;20462;-55